createdAt,value
2023-04-05T00:01:22.141Z,3.56
2023-04-05T00:03:49.850Z,3.45
2023-04-05T00:06:16.794Z,3.49
2023-04-05T00:08:44.756Z,3.41
2023-04-05T00:11:11.634Z,3.47
2023-04-05T00:13:38.752Z,3.45
2023-04-05T00:16:06.745Z,3.50
2023-04-05T00:18:38.811Z,3.50
2023-04-05T00:21:06.534Z,3.43
2023-04-05T00:23:40.063Z,3.49
2023-04-05T00:26:10.172Z,3.51
2023-04-05T00:28:42.842Z,3.52
2023-04-05T00:31:09.715Z,3.57
2023-04-05T00:33:42.995Z,3.61
2023-04-05T00:36:14.366Z,3.52
2023-04-05T00:41:31.457Z,3.52
2023-04-05T00:44:01.689Z,3.54
2023-04-05T00:47:00.295Z,3.51
2023-04-05T00:49:41.325Z,3.51
2023-04-05T00:52:32.858Z,3.56
2023-04-05T00:55:11.864Z,3.46
2023-04-05T00:57:50.824Z,3.44
2023-04-05T01:00:28.498Z,3.31
2023-04-05T01:03:05.742Z,3.38
2023-04-05T01:06:25.965Z,3.33
2023-04-05T01:09:32.387Z,3.34
2023-04-05T01:12:17.410Z,3.39
2023-04-05T01:15:13.022Z,3.41
2023-04-05T01:17:44.675Z,3.43
2023-04-05T01:20:21.237Z,3.48
2023-04-05T01:26:55.404Z,3.43
2023-04-05T01:30:01.790Z,3.32
2023-04-05T01:33:04.975Z,3.26
2023-04-05T01:36:05.280Z,3.22
2023-04-05T01:38:43.795Z,3.27
2023-04-05T01:41:18.182Z,3.26
2023-04-05T01:43:59.446Z,3.30
2023-04-05T01:46:54.277Z,3.38
2023-04-05T01:49:25.662Z,3.39
2023-04-05T01:52:19.978Z,3.37
2023-04-05T01:54:50.305Z,3.36
2023-04-05T01:57:39.140Z,3.39
2023-04-05T02:00:07.243Z,3.41
2023-04-05T02:03:25.812Z,3.44
2023-04-05T02:12:14.142Z,3.26
2023-04-05T02:14:57.755Z,3.21
2023-04-05T02:20:37.027Z,3.25
2023-04-05T02:21:13.255Z,3.21
2023-04-05T02:23:19.530Z,3.24
2023-04-05T02:25:49.245Z,3.25
2023-04-05T02:28:22.855Z,3.25
2023-04-05T02:34:27.443Z,3.28
2023-04-05T02:37:33.823Z,3.31
2023-04-05T02:40:13.964Z,3.36
2023-04-05T02:43:15.541Z,3.33
2023-04-05T02:47:05.469Z,3.33
2023-04-05T02:49:34.340Z,3.30
2023-04-05T02:52:10.962Z,3.28
2023-04-05T02:54:42.200Z,3.25
2023-04-05T02:57:17.241Z,3.33
2023-04-05T03:00:24.224Z,3.34
2023-04-05T03:03:07.588Z,3.37
2023-04-05T03:06:27.786Z,3.38
2023-04-05T03:08:56.769Z,3.24
2023-04-05T03:11:42.844Z,3.18
2023-04-05T03:17:10.182Z,3.13
2023-04-05T03:19:54.841Z,3.09
2023-04-05T03:23:06.035Z,3.10
2023-04-05T03:25:34.770Z,2.93
2023-04-05T03:28:33.348Z,2.91
2023-04-05T03:31:11.994Z,2.87
2023-04-05T03:33:42.458Z,2.93
2023-04-05T03:36:19.497Z,2.96
2023-04-05T03:38:46.322Z,2.95
2023-04-05T03:41:13.176Z,2.98
2023-04-05T03:43:39.969Z,3.07
2023-04-05T03:46:06.986Z,3.01
2023-04-05T03:48:44.620Z,2.92
2023-04-05T03:51:11.885Z,3.01
2023-04-05T03:53:39.647Z,3.05
2023-04-05T03:56:11.124Z,3.06
2023-04-05T03:58:38.701Z,3.08
2023-04-05T04:01:06.895Z,3.03
2023-04-05T04:03:34.073Z,3.01
2023-04-05T04:06:01.859Z,3.08
2023-04-05T04:08:28.690Z,3.07
2023-04-05T04:10:55.508Z,3.03
2023-04-05T04:13:23.235Z,3.08
2023-04-05T04:15:49.909Z,3.16
2023-04-05T04:18:17.270Z,3.16
2023-04-05T04:20:44.168Z,3.07
2023-04-05T04:23:11.348Z,3.19
2023-04-05T04:25:38.489Z,3.16
2023-04-05T04:28:12.977Z,3.15
2023-04-05T04:30:43.710Z,3.21
2023-04-05T04:33:41.467Z,3.20
2023-04-05T04:39:28.406Z,3.24
2023-04-05T04:41:56.299Z,3.30
2023-04-05T04:44:42.873Z,3.37
2023-04-05T04:47:18.038Z,3.36
2023-04-05T04:49:47.909Z,3.39
2023-04-05T04:52:17.915Z,3.45
2023-04-05T04:54:50.196Z,3.38
2023-04-05T04:57:17.263Z,3.52
2023-04-05T04:59:43.980Z,3.65
2023-04-05T05:02:13.865Z,3.65
2023-04-05T05:04:41.695Z,3.68
2023-04-05T05:07:18.278Z,3.74
2023-04-05T05:09:48.752Z,3.72
2023-04-05T05:12:16.626Z,3.84
2023-04-05T05:14:53.247Z,3.93
2023-04-05T05:17:20.505Z,3.96
2023-04-05T05:19:50.367Z,3.96
2023-04-05T05:22:17.369Z,4.02
2023-04-05T05:24:47.014Z,4.23
2023-04-05T05:30:04.243Z,4.37
2023-04-05T05:32:34.533Z,4.45
2023-04-05T05:35:01.747Z,4.51
2023-04-05T05:37:32.982Z,4.50
2023-04-05T05:40:00.701Z,4.48
2023-04-05T05:42:28.211Z,4.45
2023-04-05T05:44:55.200Z,4.37
2023-04-05T05:47:32.568Z,4.40
2023-04-05T05:49:59.490Z,4.40
2023-04-05T05:52:26.505Z,4.49
2023-04-05T05:54:53.361Z,4.64
2023-04-05T05:57:20.861Z,4.70
2023-04-05T05:59:47.696Z,4.67
2023-04-05T06:02:14.977Z,4.56
2023-04-05T06:04:45.656Z,4.54
2023-04-05T06:07:13.021Z,4.41
2023-04-05T06:09:40.308Z,4.47
2023-04-05T06:12:07.096Z,4.47
2023-04-05T06:14:34.519Z,4.47
2023-04-05T06:17:01.262Z,4.53
2023-04-05T06:19:28.078Z,4.54
2023-04-05T06:21:55.575Z,4.56
2023-04-05T06:24:22.444Z,4.63
2023-04-05T06:26:51.327Z,4.71
2023-04-05T06:29:18.236Z,4.78
2023-04-05T06:31:46.837Z,4.82
2023-04-05T06:34:14.194Z,4.95
2023-04-05T06:36:41.346Z,4.93
2023-04-05T06:39:08.490Z,5.06
2023-04-05T06:41:38.246Z,5.13
2023-04-05T06:44:08.543Z,5.18
2023-04-05T06:46:35.530Z,5.20
2023-04-05T06:49:03.746Z,5.26
2023-04-05T06:51:34.421Z,5.31
2023-04-05T06:54:01.204Z,5.32
2023-04-05T06:56:28.584Z,5.38
2023-04-05T06:58:56.491Z,5.40
2023-04-05T07:01:25.324Z,5.47
2023-04-05T07:03:53.651Z,5.55
2023-04-05T07:06:20.650Z,5.64
2023-04-05T07:08:47.731Z,5.75
2023-04-05T07:11:15.658Z,5.87
2023-04-05T07:13:42.510Z,5.83
2023-04-05T07:16:09.372Z,5.89
2023-04-05T07:18:36.182Z,5.96
2023-04-05T07:21:04.110Z,5.96
2023-04-05T07:23:31.322Z,5.93
2023-04-05T07:26:05.035Z,5.77
2023-04-05T07:28:33.431Z,5.77
2023-04-05T07:31:00.813Z,5.89
2023-04-05T07:33:31.216Z,5.97
2023-04-05T07:35:58.698Z,6.09
2023-04-05T07:38:27.798Z,6.07
2023-04-05T07:41:04.090Z,6.11
2023-04-05T07:43:35.020Z,6.17
2023-04-05T07:46:08.596Z,6.20
2023-04-05T07:48:59.411Z,6.30
2023-04-05T07:51:36.458Z,6.31
2023-04-05T07:54:07.273Z,6.45
2023-04-05T07:56:38.942Z,6.48
2023-04-05T07:59:14.916Z,6.44
2023-04-05T08:01:45.926Z,6.50
2023-04-05T08:04:16.623Z,6.49
2023-04-05T08:06:49.868Z,6.53
2023-04-05T08:09:17.294Z,6.45
2023-04-05T08:11:45.180Z,6.51
2023-04-05T08:14:17.949Z,6.62
2023-04-05T08:16:47.496Z,6.81
2023-04-05T08:19:15.658Z,6.97
2023-04-05T08:21:46.027Z,7.11
2023-04-05T08:24:16.455Z,7.12
2023-04-05T08:26:46.513Z,7.17
2023-04-05T08:29:21.803Z,7.29
2023-04-05T08:31:49.006Z,7.16
2023-04-05T08:34:16.461Z,7.04
2023-04-05T08:36:49.450Z,6.91
2023-04-05T08:39:19.561Z,6.74
2023-04-05T08:41:59.602Z,6.73
2023-04-05T08:44:29.366Z,6.81
2023-04-05T08:47:01.331Z,6.88
2023-04-05T08:49:35.740Z,6.97
2023-04-05T08:52:29.899Z,7.06
2023-04-05T08:55:06.834Z,6.92
2023-04-05T08:57:43.766Z,6.92
2023-04-05T09:00:11.522Z,6.94
2023-04-05T09:03:01.339Z,6.96
2023-04-05T09:05:30.343Z,6.99
2023-04-05T09:08:04.356Z,7.06
2023-04-05T09:10:31.807Z,6.92
2023-04-05T09:13:01.732Z,6.82
2023-04-05T09:15:28.910Z,6.97
2023-04-05T09:18:23.236Z,7.04
2023-04-05T09:21:06.662Z,7.14
2023-04-05T09:23:37.195Z,7.33
2023-04-05T09:26:22.014Z,7.43
2023-04-05T09:28:49.594Z,7.35
2023-04-05T09:31:34.189Z,7.27
2023-04-05T09:34:05.549Z,7.21
2023-04-05T09:36:36.118Z,7.39
2023-04-05T09:39:08.079Z,7.53
2023-04-05T09:41:36.846Z,7.52
2023-04-05T09:44:07.443Z,7.46
2023-04-05T09:46:38.382Z,7.48
2023-04-05T09:49:07.257Z,7.59
2023-04-05T09:51:36.457Z,7.67
2023-04-05T09:54:13.710Z,7.90
2023-04-05T09:56:53.599Z,7.98
2023-04-05T09:59:22.005Z,7.90
2023-04-05T10:01:51.825Z,7.89
2023-04-05T10:04:21.781Z,7.92
2023-04-05T10:06:50.741Z,7.97
2023-04-05T10:09:19.734Z,7.83
2023-04-05T10:11:47.114Z,7.87
2023-04-05T10:14:18.339Z,7.98
2023-04-05T10:16:59.861Z,8.10
2023-04-05T10:19:56.095Z,8.28
2023-04-05T10:22:41.296Z,8.33
2023-04-05T10:25:26.630Z,8.36
2023-04-05T10:28:12.252Z,8.36
2023-04-05T10:30:48.856Z,8.23
2023-04-05T10:33:36.291Z,8.33
2023-04-05T10:36:24.787Z,8.43
2023-04-05T10:39:05.740Z,8.52
2023-04-05T10:41:36.917Z,8.68
2023-04-05T10:44:22.644Z,8.93
2023-04-05T10:46:57.054Z,9.25
2023-04-05T10:49:37.731Z,9.21
2023-04-05T10:52:06.202Z,9.08
2023-04-05T10:54:40.601Z,8.88
2023-04-05T10:57:10.645Z,8.65
2023-04-05T10:59:43.340Z,8.53
2023-04-05T11:02:11.185Z,8.55
2023-04-05T11:04:49.555Z,8.65
2023-04-05T11:07:20.605Z,8.82
2023-04-05T11:09:59.213Z,9.03
2023-04-05T11:12:56.536Z,9.23
2023-04-05T11:15:32.214Z,9.33
2023-04-05T11:18:21.949Z,9.28
2023-04-05T11:20:56.243Z,9.33
2023-04-05T11:23:25.439Z,9.17
2023-04-05T11:25:55.373Z,9.12
2023-04-05T11:28:33.495Z,8.98
2023-04-05T11:31:20.090Z,8.86
2023-04-05T11:34:12.858Z,8.74
2023-04-05T11:36:45.716Z,8.58
2023-04-05T11:39:24.795Z,8.59
2023-04-05T11:41:59.072Z,8.57
2023-04-05T11:44:38.937Z,8.48
2023-04-05T11:47:33.575Z,8.56
2023-04-05T11:50:14.961Z,8.59
2023-04-05T11:52:42.003Z,8.50
2023-04-05T11:55:12.402Z,8.41
2023-04-05T11:57:44.877Z,8.35
2023-04-05T12:00:19.091Z,8.36
2023-04-05T12:02:46.468Z,8.30
2023-04-05T12:05:19.518Z,8.24
2023-04-05T12:07:55.292Z,8.25
2023-04-05T12:10:22.109Z,8.26
2023-04-05T12:13:02.488Z,8.19
2023-04-05T12:15:30.720Z,8.28
2023-04-05T12:17:59.657Z,8.33
2023-04-05T12:20:33.840Z,8.40
2023-04-05T12:23:04.187Z,8.44
2023-04-05T12:25:33.058Z,8.57
2023-04-05T12:28:07.602Z,8.61
2023-04-05T12:30:40.426Z,8.60
2023-04-05T12:33:11.770Z,8.43
2023-04-05T12:35:40.208Z,8.37
2023-04-05T12:38:17.410Z,8.27
2023-04-05T12:40:50.932Z,8.26
2023-04-05T12:43:20.316Z,8.16
2023-04-05T12:45:53.684Z,8.12
2023-04-05T12:48:27.187Z,7.99
2023-04-05T12:51:01.467Z,7.83
2023-04-05T12:53:31.973Z,7.79
2023-04-05T12:56:09.655Z,7.80
2023-04-05T12:58:37.950Z,7.71
2023-04-05T13:01:08.473Z,7.71
2023-04-05T13:03:39.304Z,7.68
2023-04-05T13:06:07.754Z,7.72
2023-04-05T13:08:35.176Z,7.76
2023-04-05T13:11:02.130Z,7.77
2023-04-05T13:13:28.870Z,7.86
2023-04-05T13:16:03.676Z,7.89
2023-04-05T13:18:31.173Z,7.91
2023-04-05T13:20:58.434Z,7.95
2023-04-05T13:23:25.492Z,7.97
2023-04-05T13:25:55.560Z,7.94
2023-04-05T13:28:22.853Z,7.97
2023-04-05T13:33:37.545Z,7.77
2023-04-05T13:36:04.953Z,7.72
2023-04-05T13:38:39.095Z,7.69
2023-04-05T13:41:06.096Z,7.52
2023-04-05T13:43:32.981Z,7.49
2023-04-05T13:46:00.211Z,7.27
2023-04-05T13:48:32.475Z,7.22
2023-04-05T13:51:01.729Z,7.19
2023-04-05T13:53:28.900Z,7.22
2023-04-05T13:55:58.835Z,7.13
2023-04-05T13:58:26.117Z,7.14
2023-04-05T14:00:53.721Z,7.08
2023-04-05T14:03:28.682Z,7.06
2023-04-05T14:06:16.829Z,7.07
2023-04-05T14:08:43.565Z,7.08
2023-04-05T14:11:13.629Z,6.99
2023-04-05T14:13:40.525Z,7.04
2023-04-05T14:16:08.124Z,6.98
2023-04-05T14:18:48.718Z,7.05
2023-04-05T14:21:15.679Z,7.17
2023-04-05T14:23:43.122Z,7.19
2023-04-05T14:26:19.921Z,7.18
2023-04-05T14:28:49.917Z,7.19
2023-04-05T14:31:17.127Z,7.13
2023-04-05T14:33:44.846Z,7.01
2023-04-05T14:36:12.404Z,6.84
2023-04-05T14:38:48.406Z,6.83
2023-04-05T14:41:15.214Z,6.79
2023-04-05T14:43:43.290Z,6.82
2023-04-05T14:46:10.274Z,6.88
2023-04-05T14:48:37.615Z,7.01
2023-04-05T14:51:04.797Z,7.16
2023-04-05T14:53:32.381Z,7.31
2023-04-05T14:55:59.274Z,7.36
2023-04-05T14:58:26.180Z,7.42
2023-04-05T15:00:53.069Z,7.38
2023-04-05T15:03:20.347Z,7.36
2023-04-05T15:05:50.461Z,7.32
2023-04-05T15:08:17.229Z,7.29
2023-04-05T15:10:44.624Z,7.28
2023-04-05T15:13:15.097Z,7.31
2023-04-05T15:16:08.838Z,7.25
2023-04-05T15:18:41.122Z,7.18
2023-04-05T15:21:08.177Z,7.05
2023-04-05T15:23:35.099Z,6.94
2023-04-05T15:26:02.226Z,6.88
2023-04-05T15:28:32.161Z,6.81
2023-04-05T15:30:59.622Z,6.70
2023-04-05T15:33:27.077Z,6.59
2023-04-05T15:36:00.236Z,6.53
2023-04-05T15:38:27.569Z,6.45
2023-04-05T15:40:54.725Z,6.51
2023-04-05T15:43:29.780Z,6.55
2023-04-05T15:46:06.887Z,6.52
2023-04-05T15:48:34.424Z,6.55
2023-04-05T15:51:01.832Z,6.55
2023-04-05T15:53:29.754Z,6.56
2023-04-05T15:56:01.470Z,6.59
2023-04-05T15:58:29.034Z,6.49
2023-04-05T16:00:59.255Z,6.52
2023-04-05T16:03:26.810Z,6.52
2023-04-05T16:06:03.401Z,6.47
2023-04-05T16:08:31.321Z,6.47
2023-04-05T16:11:07.805Z,6.48
2023-04-05T16:13:37.790Z,6.44
2023-04-05T16:16:35.275Z,6.41
2023-04-05T16:19:10.877Z,6.35
2023-04-05T16:22:01.889Z,6.31
2023-04-05T16:24:33.734Z,6.32
2023-04-05T16:27:15.966Z,6.32
2023-04-05T16:29:51.348Z,6.32
2023-04-05T16:32:49.455Z,6.31
2023-04-05T16:35:50.310Z,6.27
2023-04-05T16:41:11.536Z,5.99
2023-04-05T16:43:46.074Z,5.94
2023-04-05T16:46:16.945Z,5.88
2023-04-05T16:48:59.458Z,5.85
2023-04-05T16:51:38.162Z,5.84
2023-04-05T16:54:21.113Z,5.79
2023-04-05T16:56:48.136Z,5.74
2023-04-05T16:59:34.392Z,5.77
2023-04-05T17:02:38.941Z,5.75
2023-04-05T17:05:20.472Z,5.72
2023-04-05T17:07:48.491Z,5.70
2023-04-05T17:10:22.840Z,5.68
2023-04-05T17:13:24.801Z,5.66
2023-04-05T17:16:04.018Z,5.65
2023-04-05T17:21:46.493Z,5.45
2023-04-05T17:24:29.736Z,5.44
2023-04-05T17:29:49.838Z,5.32
2023-04-05T17:36:11.095Z,5.28
2023-04-05T17:39:55.325Z,5.19
2023-04-05T17:45:19.301Z,5.19
2023-04-05T17:48:33.439Z,5.22
2023-04-05T17:51:21.359Z,5.21
2023-04-05T17:54:24.372Z,5.25
2023-04-05T17:57:29.101Z,5.21
2023-04-05T18:00:22.332Z,5.18
2023-04-05T18:02:56.567Z,5.00
2023-04-05T18:06:03.229Z,4.97
2023-04-05T18:09:24.327Z,4.94
2023-04-05T18:11:55.672Z,4.91
2023-04-05T18:14:42.371Z,4.90
2023-04-05T18:17:47.736Z,4.93
2023-04-05T18:20:24.743Z,4.98
2023-04-05T18:23:15.561Z,4.93
2023-04-05T18:26:11.133Z,4.93
2023-04-05T18:28:53.430Z,4.92
2023-04-05T18:31:30.519Z,4.87
2023-04-05T18:34:34.565Z,4.78
2023-04-05T18:37:08.940Z,4.67
2023-04-05T18:40:08.268Z,4.62
2023-04-05T18:43:08.663Z,4.58
2023-04-05T18:46:23.662Z,4.62
2023-04-05T18:51:49.429Z,4.58
2023-04-05T18:54:58.677Z,4.62
2023-04-05T18:58:12.562Z,4.66
2023-04-05T19:07:23.623Z,4.76
2023-04-05T19:10:07.047Z,4.80
2023-04-05T19:13:36.980Z,4.78
2023-04-05T19:16:34.864Z,4.71
2023-04-05T19:19:52.954Z,4.69
2023-04-05T19:22:42.938Z,4.69
2023-04-05T19:25:26.424Z,4.69
2023-04-05T19:28:42.937Z,4.63
2023-04-05T19:30:54.126Z,4.63
2023-04-05T19:33:48.968Z,4.61
2023-04-05T19:36:27.474Z,4.54
2023-04-05T19:39:27.443Z,4.55
2023-04-05T19:42:04.719Z,4.51
2023-04-05T19:44:54.874Z,4.53
2023-04-05T19:47:25.938Z,4.47
2023-04-05T19:50:07.204Z,4.43
2023-04-05T19:55:46.966Z,4.34
2023-04-05T19:58:29.625Z,4.38
2023-04-05T20:01:02.296Z,4.29
2023-04-05T20:03:32.325Z,4.20
2023-04-05T20:06:13.502Z,4.15
2023-04-05T20:08:51.353Z,4.15
2023-04-05T20:11:40.799Z,4.22
2023-04-05T20:14:18.113Z,4.09
2023-04-05T20:17:05.232Z,4.07
2023-04-05T20:22:47.322Z,4.01
2023-04-05T20:25:43.004Z,4.08
2023-04-05T20:28:59.240Z,4.06
2023-04-05T20:34:53.976Z,4.13
2023-04-05T20:37:37.062Z,4.09
2023-04-05T20:40:16.750Z,4.10
2023-04-05T20:45:26.698Z,4.01
2023-04-05T20:47:55.205Z,3.96
2023-04-05T20:50:35.331Z,3.94
2023-04-05T20:53:36.861Z,3.77
2023-04-05T20:56:12.149Z,3.76
2023-04-05T20:58:57.774Z,3.71
2023-04-05T21:01:45.030Z,3.69
2023-04-05T21:04:29.389Z,3.69
2023-04-05T21:10:19.614Z,3.65
2023-04-05T21:15:19.868Z,3.54
2023-04-05T21:17:47.538Z,3.58
2023-04-05T21:20:17.701Z,3.62
2023-04-05T21:22:46.374Z,3.65
2023-04-05T21:25:14.611Z,3.68
2023-04-05T21:27:45.172Z,3.65
2023-04-05T21:30:12.746Z,3.67
2023-04-05T21:32:40.125Z,3.60
2023-04-05T21:35:10.503Z,3.57
2023-04-05T21:37:40.749Z,3.61
2023-04-05T21:43:04.855Z,3.61
2023-04-05T21:45:35.294Z,3.58
2023-04-05T21:48:03.148Z,3.59
2023-04-05T21:50:33.369Z,3.61
2023-04-05T21:53:13.788Z,3.56
2023-04-05T21:56:02.808Z,3.54
2023-04-05T21:58:48.809Z,3.57
2023-04-05T22:01:16.852Z,3.55
2023-04-05T22:03:50.140Z,3.63
2023-04-05T22:06:41.417Z,3.66
2023-04-05T22:09:35.970Z,3.62
2023-04-05T22:12:05.443Z,3.61
2023-04-05T22:14:49.281Z,3.57
2023-04-05T22:17:23.611Z,3.58
2023-04-05T22:19:56.702Z,3.61
2023-04-05T22:22:30.063Z,3.64
2023-04-05T22:25:01.233Z,3.65
2023-04-05T22:27:29.767Z,3.62
2023-04-05T22:32:58.420Z,3.61
2023-04-05T22:35:38.229Z,3.60
2023-04-05T22:38:06.509Z,3.59
2023-04-05T22:40:44.252Z,3.55
2023-04-05T22:43:20.891Z,3.45
2023-04-05T22:45:53.000Z,3.39
2023-04-05T22:48:34.974Z,3.32
2023-04-05T22:51:17.093Z,3.31
2023-04-05T22:53:50.543Z,3.27
2023-04-05T22:56:26.375Z,3.22
2023-04-05T22:58:53.821Z,3.19
2023-04-05T23:01:24.500Z,3.07
2023-04-05T23:03:58.091Z,3.05
2023-04-05T23:06:28.051Z,3.01
2023-04-05T23:09:04.008Z,3.03
2023-04-05T23:11:34.442Z,3.02
2023-04-05T23:14:02.629Z,3.01
2023-04-05T23:16:41.999Z,2.99
2023-04-05T23:19:15.613Z,3.03
2023-04-05T23:21:46.599Z,2.96
2023-04-05T23:24:23.402Z,2.95
2023-04-05T23:26:57.870Z,2.93
2023-04-05T23:29:27.191Z,2.92
2023-04-05T23:32:03.921Z,2.95
2023-04-05T23:34:31.685Z,2.97
2023-04-05T23:37:05.366Z,2.97
2023-04-05T23:39:36.572Z,2.99
2023-04-05T23:45:08.462Z,3.01
2023-04-05T23:47:43.480Z,3.00
2023-04-05T23:50:11.850Z,3.05
2023-04-05T23:56:18.641Z,3.06
2023-04-05T23:59:21.500Z,3.00
